Time;durP1;ratioP1;P1;durP2;ratioP2;P2;SDS_P1;SDS_P2;PMS_P1;PMS_P2;Temp;Humidity;BMP_temperature;BMP_pressure;BME280_temperature;BME280_humidity;BME280_pressure;Samples;Min_cycle;Max_cycle;Signal;HPM_P1;HPM_P2
2023/05/09 00:01:19;;;;;;;17.80;12.27;;;;;10.70;97404.00;;;;5110047;28;20260;-65
2023/05/09 00:04:08;;;;;;;18.57;12.73;;;;;10.70;97399.00;;;;5112182;28;20557;-65
2023/05/09 00:06:57;;;;;;;20.77;13.50;;;;;10.60;97398.00;;;;5110752;28;20242;-65
2023/05/09 00:09:46;;;;;;;20.50;11.97;;;;;10.50;97393.00;;;;5111596;28;20226;-64
2023/05/09 00:12:37;;;;;;;18.10;12.33;;;;;10.40;97398.00;;;;5102121;28;20202;-65
2023/05/09 00:15:26;;;;;;;14.33;11.47;;;;;10.40;97389.00;;;;5110188;28;20229;-66
2023/05/09 00:18:16;;;;;;;16.17;11.20;;;;;10.30;97390.00;;;;5109278;28;20250;-69
2023/05/09 00:21:05;;;;;;;18.27;13.03;;;;;10.30;97392.00;;;;5110588;28;20195;-67
2023/05/09 00:23:55;;;;;;;16.73;13.10;;;;;10.20;97388.00;;;;5100020;28;20209;-67
2023/05/09 00:26:43;;;;;;;22.30;13.77;;;;;10.50;97390.00;;;;5096765;28;20797;-66
2023/05/09 00:29:34;;;;;;;16.33;11.97;;;;;10.50;97383.00;;;;5110052;28;20214;-66
2023/05/09 00:32:23;;;;;;;21.23;12.80;;;;;10.60;97387.00;;;;5110578;28;20210;-66
2023/05/09 00:35:12;;;;;;;19.00;13.10;;;;;10.50;97382.00;;;;5101508;28;20222;-66
2023/05/09 00:38:01;;;;;;;20.83;13.60;;;;;10.40;97370.00;;;;5106597;28;20215;-66
2023/05/09 00:40:50;;;;;;;16.93;13.20;;;;;10.40;97369.00;;;;5097659;28;20198;-66
2023/05/09 00:43:39;;;;;;;16.17;11.47;;;;;10.70;97364.00;;;;5110459;28;20227;-66
2023/05/09 00:46:30;;;;;;;17.57;13.43;;;;;10.90;97379.00;;;;5100796;28;20223;-66
2023/05/09 00:49:19;;;;;;;20.00;12.10;;;;;10.80;97373.00;;;;5109004;28;20580;-66
2023/05/09 00:52:08;;;;;;;20.37;13.90;;;;;10.50;97367.00;;;;5101920;28;20704;-66
2023/05/09 00:54:57;;;;;;;17.00;13.30;;;;;10.30;97363.00;;;;5110231;28;20623;-67
2023/05/09 00:57:46;;;;;;;17.60;13.53;;;;;10.30;97371.00;;;;5109650;28;20225;-66
2023/05/09 01:00:35;;;;;;;18.70;12.67;;;;;10.50;97358.00;;;;5109944;28;20222;-66
2023/05/09 01:03:26;;;;;;;18.40;12.93;;;;;10.60;97354.00;;;;5108900;28;20312;-66
2023/05/09 01:06:20;;;;;;;15.87;11.93;;;;;10.40;97356.00;;;;5110091;28;20227;-66
2023/05/09 01:09:15;;;;;;;17.30;13.23;;;;;10.40;97363.00;;;;5109801;28;20263;-66
2023/05/09 01:12:11;;;;;;;20.60;13.77;;;;;10.30;97355.00;;;;5108561;28;20215;-67
2023/05/09 01:15:06;;;;;;;19.87;13.50;;;;;10.50;97357.00;;;;5083857;28;20225;-66
2023/05/09 01:17:59;;;;;;;17.90;12.50;;;;;10.50;97349.00;;;;5089244;28;20215;-67
2023/05/09 01:20:56;;;;;;;22.33;13.53;;;;;10.70;97343.00;;;;5089098;28;20199;-66
2023/05/09 01:24:27;;;;;;;15.30;11.50;;;;;10.80;97352.00;;;;5088995;28;20187;-66
2023/05/09 01:27:28;;;;;;;18.83;13.33;;;;;10.80;97350.00;;;;5074220;28;20725;-66
2023/05/09 01:30:19;;;;;;;18.60;13.07;;;;;10.90;97344.00;;;;5108844;28;20201;-66
2023/05/09 01:33:09;;;;;;;19.97;12.77;;;;;11.00;97336.00;;;;5108690;28;20676;-66
2023/05/09 01:36:02;;;;;;;19.37;15.70;;;;;11.10;97341.00;;;;5094168;28;20584;-66
2023/05/09 01:38:52;;;;;;;19.50;13.57;;;;;11.20;97349.00;;;;5081455;28;20850;-66
2023/05/09 01:41:41;;;;;;;16.87;12.27;;;;;11.00;97338.00;;;;5087957;28;20244;-66
2023/05/09 01:44:35;;;;;;;20.53;11.83;;;;;10.90;97339.00;;;;5089524;28;20686;-66
2023/05/09 01:47:26;;;;;;;17.43;12.17;;;;;10.80;97347.00;;;;5088152;28;20266;-66
2023/05/09 01:50:17;;;;;;;21.47;11.77;;;;;10.60;97336.00;;;;5088227;28;20211;-66
2023/05/09 01:53:06;;;;;;;14.73;12.57;;;;;10.70;97344.00;;;;5088911;28;20195;-66
2023/05/09 01:55:57;;;;;;;16.07;11.40;;;;;10.70;97343.00;;;;5087467;28;20260;-66
2023/05/09 01:58:48;;;;;;;21.27;14.27;;;;;10.80;97341.00;;;;5089127;28;20206;-66
2023/05/09 02:01:38;;;;;;;16.47;12.30;;;;;10.70;97328.00;;;;5088028;28;20211;-66
2023/05/09 02:04:29;;;;;;;18.57;12.73;;;;;10.50;97338.00;;;;5089534;28;20292;-66
2023/05/09 02:07:18;;;;;;;19.43;12.73;;;;;10.20;97327.00;;;;5098074;28;20222;-66
2023/05/09 02:10:10;;;;;;;19.93;13.33;;;;;10.40;97330.00;;;;5091597;28;20235;-66
2023/05/09 02:12:59;;;;;;;20.47;13.07;;;;;10.40;97331.00;;;;5084753;28;20226;-67
2023/05/09 02:15:48;;;;;;;16.07;12.50;;;;;10.40;97329.00;;;;5093495;28;20237;-66
2023/05/09 02:18:37;;;;;;;17.80;13.07;;;;;10.60;97328.00;;;;5099773;28;20205;-66
2023/05/09 02:21:27;;;;;;;17.73;12.57;;;;;10.50;97323.00;;;;5107207;28;20195;-66
2023/05/09 02:24:17;;;;;;;16.93;12.50;;;;;10.30;97324.00;;;;5107451;28;20214;-65
2023/05/09 02:27:06;;;;;;;20.93;12.67;;;;;10.50;97320.00;;;;5106923;28;20222;-66
2023/05/09 02:29:58;;;;;;;15.57;10.70;;;;;10.50;97326.00;;;;5096696;28;20210;-66
2023/05/09 02:32:50;;;;;;;20.10;12.20;;;;;10.50;97327.00;;;;5101223;28;20588;-66
2023/05/09 02:35:41;;;;;;;16.23;11.27;;;;;10.50;97317.00;;;;5089195;28;20199;-66
2023/05/09 02:38:31;;;;;;;17.17;12.47;;;;;10.60;97325.00;;;;5086452;28;20712;-66
2023/05/09 02:41:20;;;;;;;18.40;12.23;;;;;10.70;97322.00;;;;5087643;28;20202;-66
2023/05/09 02:44:09;;;;;;;16.10;11.77;;;;;10.70;97318.00;;;;5090435;28;20627;-66
2023/05/09 02:46:58;;;;;;;18.27;13.70;;;;;10.80;97322.00;;;;5086908;28;20649;-66
2023/05/09 02:49:47;;;;;;;15.03;11.50;;;;;10.70;97328.00;;;;5107046;28;20797;-66
2023/05/09 02:52:36;;;;;;;15.23;11.07;;;;;10.70;97332.00;;;;5095224;28;20736;-66
2023/05/09 02:55:27;;;;;;;18.50;11.83;;;;;10.70;97323.00;;;;5088018;28;20234;-67
2023/05/09 02:58:16;;;;;;;18.93;10.73;;;;;10.90;97320.00;;;;5104621;28;20306;-67
2023/05/09 03:01:05;;;;;;;15.27;11.60;;;;;10.90;97327.00;;;;5107108;28;20240;-67
2023/05/09 03:03:54;;;;;;;13.10;11.57;;;;;10.90;97327.00;;;;5108312;28;20199;-67
2023/05/09 03:06:43;;;;;;;17.40;12.07;;;;;11.10;97321.00;;;;5109734;28;20225;-66
2023/05/09 03:09:32;;;;;;;16.30;10.87;;;;;11.00;97322.00;;;;5113187;28;20238;-67
2023/05/09 03:12:23;;;;;;;14.30;10.77;;;;;11.20;97331.00;;;;5115094;28;20226;-67
2023/05/09 03:15:12;;;;;;;14.60;11.63;;;;;11.10;97316.00;;;;5114579;28;20202;-67
2023/05/09 03:18:01;;;;;;;18.10;12.80;;;;;10.80;97320.00;;;;5093549;28;20760;-67
2023/05/09 03:20:50;;;;;;;19.10;12.40;;;;;10.60;97317.00;;;;5094308;28;20681;-66
2023/05/09 03:23:39;;;;;;;18.73;12.63;;;;;10.80;97331.00;;;;5114577;28;20190;-66
2023/05/09 03:26:28;;;;;;;21.53;12.63;;;;;11.10;97317.00;;;;5113678;28;20226;-66
2023/05/09 03:29:19;;;;;;;20.77;13.33;;;;;11.20;97326.00;;;;5115034;28;20281;-66
2023/05/09 03:32:08;;;;;;;19.87;13.80;;;;;11.30;97328.00;;;;5112660;28;20722;-66
2023/05/09 03:34:57;;;;;;;17.67;13.43;;;;;10.90;97322.00;;;;5107984;28;20202;-66
2023/05/09 03:37:46;;;;;;;17.87;13.20;;;;;11.20;97329.00;;;;5113207;28;20218;-66
2023/05/09 03:40:35;;;;;;;17.63;12.50;;;;;11.20;97330.00;;;;5094365;28;20800;-66
2023/05/09 03:43:24;;;;;;;17.83;13.17;;;;;11.20;97327.00;;;;5111247;28;20194;-66
2023/05/09 03:46:14;;;;;;;20.33;12.87;;;;;11.10;97330.00;;;;5113559;28;20241;-66
2023/05/09 03:49:04;;;;;;;16.57;12.67;;;;;11.00;97333.00;;;;5106303;28;20206;-66
2023/05/09 03:51:53;;;;;;;18.47;13.37;;;;;11.00;97334.00;;;;5088254;28;20866;-66
2023/05/09 03:54:42;;;;;;;18.80;12.40;;;;;10.90;97328.00;;;;5105762;28;20664;-66
2023/05/09 03:57:30;;;;;;;19.37;12.07;;;;;10.80;97340.00;;;;5112464;28;20255;-66
2023/05/09 04:00:20;;;;;;;14.33;11.60;;;;;10.90;97338.00;;;;5113183;28;20206;-66
2023/05/09 04:03:11;;;;;;;16.83;11.60;;;;;10.80;97334.00;;;;5085255;28;20262;-66
2023/05/09 04:06:00;;;;;;;18.80;12.57;;;;;10.90;97336.00;;;;5088580;28;20207;-66
2023/05/09 04:08:49;;;;;;;15.80;12.10;;;;;11.10;97339.00;;;;5087663;28;20195;-66
2023/05/09 04:11:38;;;;;;;15.60;11.83;;;;;11.30;97339.00;;;;5101954;28;20888;-68
2023/05/09 04:14:26;;;;;;;18.13;12.53;;;;;11.40;97347.00;;;;5093871;28;20207;-66
2023/05/09 04:17:15;;;;;;;16.50;11.67;;;;;11.50;97359.00;;;;5089657;28;20274;-65
2023/05/09 04:20:07;;;;;;;16.73;11.73;;;;;11.70;97338.00;;;;5090300;28;20713;-65
2023/05/09 04:22:57;;;;;;;16.00;12.20;;;;;11.80;97338.00;;;;5090785;28;20277;-66
2023/05/09 04:25:46;;;;;;;17.37;12.03;;;;;11.90;97337.00;;;;5087937;28;20207;-66
2023/05/09 04:28:35;;;;;;;16.13;11.73;;;;;11.90;97341.00;;;;5080881;28;20203;-66
2023/05/09 04:31:25;;;;;;;21.13;11.93;;;;;12.10;97342.00;;;;5085295;28;20207;-65
2023/05/09 04:34:14;;;;;;;15.87;10.70;;;;;12.20;97345.00;;;;5086166;28;20203;-65
2023/05/09 04:37:05;;;;;;;15.03;11.03;;;;;12.20;97347.00;;;;5084187;28;20723;-66
2023/05/09 04:39:54;;;;;;;11.87;9.90;;;;;12.30;97342.00;;;;5094991;28;20221;-66
2023/05/09 04:42:43;;;;;;;13.83;10.40;;;;;12.40;97337.00;;;;5086888;28;20674;-66
2023/05/09 04:45:31;;;;;;;18.53;10.23;;;;;12.40;97334.00;;;;5096327;28;20248;-66
2023/05/09 04:48:20;;;;;;;21.27;10.80;;;;;12.50;97331.00;;;;5089451;28;20324;-66
2023/05/09 04:51:10;;;;;;;12.97;9.80;;;;;12.50;97336.00;;;;5096294;28;20199;-66
2023/05/09 04:54:00;;;;;;;12.93;10.50;;;;;12.50;97338.00;;;;5086036;28;20242;-66
2023/05/09 04:56:49;;;;;;;14.77;10.30;;;;;12.30;97341.00;;;;5088770;28;20235;-66
2023/05/09 04:59:38;;;;;;;13.80;9.77;;;;;12.20;97341.00;;;;5083190;28;20216;-66
2023/05/09 05:02:27;;;;;;;11.57;9.93;;;;;11.70;97339.00;;;;5088024;28;20226;-65
2023/05/09 05:05:16;;;;;;;12.73;8.73;;;;;11.60;97342.00;;;;5090904;28;20210;-68
2023/05/09 05:08:05;;;;;;;9.50;8.27;;;;;11.50;97354.00;;;;5078073;28;20285;-64
2023/05/09 05:10:56;;;;;;;11.43;8.10;;;;;11.70;97343.00;;;;5083278;28;20200;-67
2023/05/09 05:13:45;;;;;;;10.13;7.77;;;;;11.90;97351.00;;;;5085456;28;20272;-69
2023/05/09 05:16:34;;;;;;;8.23;6.70;;;;;11.80;97348.00;;;;5090688;28;20231;-64
2023/05/09 05:19:23;;;;;;;9.27;7.97;;;;;11.80;97350.00;;;;5088991;28;20203;-66
2023/05/09 05:22:12;;;;;;;9.20;7.73;;;;;11.90;97359.00;;;;5090672;28;20245;-66
2023/05/09 05:25:02;;;;;;;9.37;7.57;;;;;11.80;97357.00;;;;5083876;28;20207;-65
2023/05/09 05:27:52;;;;;;;9.60;6.93;;;;;11.70;97360.00;;;;5079482;28;20223;-66
2023/05/09 05:30:41;;;;;;;7.20;6.43;;;;;11.70;97357.00;;;;5082262;28;20203;-66
2023/05/09 05:33:30;;;;;;;7.13;6.03;;;;;11.70;97361.00;;;;5085933;28;20255;-65
2023/05/09 05:36:19;;;;;;;9.27;6.90;;;;;11.60;97355.00;;;;5096177;28;20227;-64
2023/05/09 05:39:08;;;;;;;7.57;5.83;;;;;11.20;97352.00;;;;5086292;28;20233;-74
2023/05/09 05:41:57;;;;;;;7.60;5.53;;;;;11.20;97364.00;;;;5098117;28;20301;-71
2023/05/09 05:44:47;;;;;;;6.93;5.93;;;;;11.60;97358.00;;;;5100383;28;20195;-65
2023/05/09 05:47:37;;;;;;;8.97;6.20;;;;;11.50;97365.00;;;;5099675;28;20348;-65
2023/05/09 05:50:27;;;;;;;7.53;5.57;;;;;11.50;97358.00;;;;5098680;28;20621;-65
2023/05/09 05:53:16;;;;;;;6.87;5.63;;;;;11.00;97359.00;;;;5098981;28;20878;-67
2023/05/09 05:56:05;;;;;;;7.97;5.97;;;;;11.60;97363.00;;;;5092984;28;20243;-65
2023/05/09 05:58:54;;;;;;;11.90;5.50;;;;;11.50;97363.00;;;;5092593;28;20244;-66
2023/05/09 06:01:44;;;;;;;10.20;5.87;;;;;12.00;97363.00;;;;5091167;28;20203;-66
2023/05/09 06:04:33;;;;;;;7.03;5.97;;;;;12.00;97360.00;;;;5086769;28;20214;-66
2023/05/09 06:07:22;;;;;;;8.00;6.43;;;;;11.60;97354.00;;;;5106917;28;20245;-64
2023/05/09 06:10:11;;;;;;;7.83;5.60;;;;;12.10;97359.00;;;;5108531;28;20230;-65
2023/05/09 06:13:00;;;;;;;6.40;5.80;;;;;11.30;97364.00;;;;5099056;28;20223;-63
2023/05/09 06:15:49;;;;;;;8.80;5.53;;;;;11.20;97356.00;;;;5078068;28;20207;-63
2023/05/09 06:18:40;;;;;;;8.00;5.97;;;;;11.60;97361.00;;;;5086200;28;20218;-63
2023/05/09 06:21:29;;;;;;;7.43;5.67;;;;;11.60;97363.00;;;;5096529;28;20206;-65
2023/05/09 06:24:18;;;;;;;7.23;6.00;;;;;11.70;97360.00;;;;5099491;28;20199;-63
2023/05/09 06:27:11;;;;;;;9.03;5.93;;;;;11.80;97362.00;;;;5107665;28;20221;-65
2023/05/09 06:30:00;;;;;;;8.27;5.93;;;;;11.50;97359.00;;;;5098892;28;20293;-64
2023/05/09 06:32:52;;;;;;;5.53;5.03;;;;;11.90;97367.00;;;;5107311;28;20233;-66
2023/05/09 06:35:42;;;;;;;7.10;6.43;;;;;12.00;97358.00;;;;5098700;28;20191;-66
2023/05/09 06:38:31;;;;;;;6.87;6.17;;;;;12.10;97356.00;;;;5102410;28;20199;-72
2023/05/09 06:41:20;;;;;;;6.23;5.07;;;;;11.60;97353.00;;;;5108305;28;20194;-68
2023/05/09 06:44:09;;;;;;;7.13;5.77;;;;;11.90;97354.00;;;;5108996;28;20205;-70
2023/05/09 06:46:58;;;;;;;6.27;5.40;;;;;12.40;97348.00;;;;5108441;28;20214;-64
2023/05/09 06:49:47;;;;;;;5.90;4.80;;;;;12.20;97347.00;;;;5107831;28;20198;-65
2023/05/09 06:52:37;;;;;;;14.70;5.70;;;;;12.30;97343.00;;;;5108068;28;20276;-66
2023/05/09 06:55:27;;;;;;;6.10;5.33;;;;;12.00;97336.00;;;;5107619;28;20202;-63
2023/05/09 06:58:16;;;;;;;6.80;6.07;;;;;12.00;97338.00;;;;5103342;28;20237;-70
2023/05/09 07:01:05;;;;;;;7.77;5.93;;;;;12.30;97337.00;;;;5086912;28;20206;-67
2023/05/09 07:03:54;;;;;;;6.17;5.57;;;;;12.10;97334.00;;;;5086892;28;20843;-72
2023/05/09 07:06:43;;;;;;;5.87;5.30;;;;;12.90;97345.00;;;;5088142;28;20219;-67
2023/05/09 07:09:33;;;;;;;8.03;5.50;;;;;13.20;97333.00;;;;5087869;28;20269;-66
2023/05/09 07:12:22;;;;;;;8.77;6.13;;;;;12.50;97334.00;;;;5071546;28;20274;-64
2023/05/09 07:15:11;;;;;;;7.63;5.30;;;;;13.40;97334.00;;;;5066885;28;20650;-64
2023/05/09 07:18:00;;;;;;;9.30;6.27;;;;;13.30;97336.00;;;;5067409;28;20250;-64
2023/05/09 07:20:49;;;;;;;10.67;7.33;;;;;12.80;97331.00;;;;5066602;28;20200;-70
2023/05/09 07:23:38;;;;;;;10.37;7.43;;;;;13.10;97336.00;;;;5068144;28;20253;-68
2023/05/09 07:26:29;;;;;;;11.53;7.50;;;;;13.80;97335.00;;;;5065944;28;20223;-67
2023/05/09 07:29:19;;;;;;;8.23;7.20;;;;;14.10;97345.00;;;;5066073;28;20579;-68
2023/05/09 07:32:07;;;;;;;11.07;6.97;;;;;14.50;97330.00;;;;5067815;28;20207;-68
2023/05/09 07:34:57;;;;;;;7.63;6.07;;;;;14.30;97331.00;;;;5066798;28;20227;-68
2023/05/09 07:37:45;;;;;;;6.83;6.00;;;;;14.30;97314.00;;;;5069366;28;20234;-68
2023/05/09 07:40:35;;;;;;;7.07;6.37;;;;;14.10;97319.00;;;;5087893;28;20378;-68
2023/05/09 07:43:26;;;;;;;6.97;6.10;;;;;13.40;97314.00;;;;5087110;28;20229;-67
2023/05/09 07:46:15;;;;;;;7.03;5.93;;;;;13.70;97314.00;;;;5087028;28;20224;-67
2023/05/09 07:49:04;;;;;;;7.90;6.83;;;;;14.60;97324.00;;;;5086784;28;20282;-68
2023/05/09 07:51:53;;;;;;;10.40;6.57;;;;;13.60;97304.00;;;;5061770;28;20232;-68
2023/05/09 07:54:41;;;;;;;7.23;6.53;;;;;13.10;97309.00;;;;5071715;28;20223;-71
2023/05/09 07:57:30;;;;;;;9.07;7.73;;;;;13.70;97313.00;;;;5069752;28;20235;-67
2023/05/09 08:00:22;;;;;;;8.83;6.90;;;;;13.50;97308.00;;;;5091213;28;20208;-67
2023/05/09 08:03:11;;;;;;;9.87;7.20;;;;;14.00;97302.00;;;;5091320;28;20218;-67
2023/05/09 08:06:00;;;;;;;7.53;6.60;;;;;13.60;97300.00;;;;5086268;28;20200;-65
2023/05/09 08:08:49;;;;;;;11.63;7.13;;;;;13.50;97295.00;;;;5097757;28;20738;-65
2023/05/09 08:11:38;;;;;;;9.57;8.57;;;;;13.70;97294.00;;;;5102185;28;20249;-67
2023/05/09 08:14:27;;;;;;;10.93;6.70;;;;;14.10;97298.00;;;;5090406;28;20223;-66
2023/05/09 08:17:17;;;;;;;8.80;7.53;;;;;14.60;97295.00;;;;5089168;28;20297;-66
2023/05/09 08:20:07;;;;;;;9.03;8.17;;;;;14.90;97291.00;;;;5090369;28;20218;-66
2023/05/09 08:22:56;;;;;;;7.57;6.70;;;;;13.90;97285.00;;;;5089945;28;20237;-69
2023/05/09 08:25:45;;;;;;;10.37;7.37;;;;;14.80;97296.00;;;;5083173;28;20218;-69
2023/05/09 08:28:34;;;;;;;12.07;7.37;;;;;14.80;97292.00;;;;5090447;28;20205;-67
2023/05/09 08:31:23;;;;;;;9.83;7.17;;;;;14.70;97293.00;;;;5089062;28;20207;-67
2023/05/09 08:34:14;;;;;;;9.37;7.40;;;;;14.60;97290.00;;;;5090708;28;20223;-66
2023/05/09 08:37:03;;;;;;;10.30;8.17;;;;;14.90;97287.00;;;;5084229;28;20904;-67
2023/05/09 08:39:52;;;;;;;9.63;7.07;;;;;14.70;97297.00;;;;5109539;28;20268;-67
2023/05/09 08:42:43;;;;;;;8.53;7.63;;;;;14.90;97290.00;;;;5082973;28;20199;-67
2023/05/09 08:45:32;;;;;;;9.50;7.63;;;;;15.40;97295.00;;;;5089364;28;20202;-67
2023/05/09 08:48:21;;;;;;;8.33;7.03;;;;;15.00;97297.00;;;;5088577;28;20200;-68
2023/05/09 08:51:12;;;;;;;8.97;7.77;;;;;14.80;97289.00;;;;5089378;28;20210;-66
2023/05/09 08:54:01;;;;;;;9.77;5.90;;;;;14.10;97289.00;;;;5084467;28;20286;-71
2023/05/09 08:56:50;;;;;;;8.33;7.07;;;;;14.10;97289.00;;;;5089109;28;20219;-67
2023/05/09 08:59:41;;;;;;;8.23;6.70;;;;;14.20;97293.00;;;;5100839;28;20355;-67
2023/05/09 09:02:30;;;;;;;8.90;7.00;;;;;14.40;97292.00;;;;5110198;28;20203;-64
2023/05/09 09:05:19;;;;;;;8.77;6.77;;;;;14.40;97300.00;;;;5108327;28;20263;-66
2023/05/09 09:08:24;;;;;;;9.97;6.80;;;;;14.30;97287.00;;;;5109819;28;20206;-66
2023/05/09 09:11:14;;;;;;;8.77;7.43;;;;;14.80;97296.00;;;;5104039;28;20265;-66
2023/05/09 09:14:09;;;;;;;8.60;7.53;;;;;15.20;97298.00;;;;5101121;28;20199;-66
2023/05/09 09:16:59;;;;;;;8.27;7.37;;;;;15.60;97299.00;;;;5099475;28;20235;-67
2023/05/09 09:19:50;;;;;;;7.60;6.80;;;;;15.80;97292.00;;;;5109991;28;20696;-67
2023/05/09 09:22:42;;;;;;;9.90;5.83;;;;;15.70;97285.00;;;;5109312;28;20692;-66
2023/05/09 09:25:32;;;;;;;6.70;5.97;;;;;16.20;97294.00;;;;5100459;28;20267;-66
2023/05/09 09:28:21;;;;;;;7.57;6.23;;;;;16.40;97296.00;;;;5108330;28;20202;-66
2023/05/09 09:31:20;;;;;;;9.43;6.40;;;;;16.70;97294.00;;;;5110171;28;20206;-66
2023/05/09 09:34:09;;;;;;;11.03;6.13;;;;;16.90;97283.00;;;;5101902;28;20263;-66
2023/05/09 09:36:59;;;;;;;7.90;6.00;;;;;17.10;97289.00;;;;5099452;28;20230;-66
2023/05/09 09:39:55;;;;;;;9.33;7.17;;;;;16.60;97285.00;;;;5106958;28;20206;-66
2023/05/09 09:42:46;;;;;;;6.20;5.60;;;;;15.10;97282.00;;;;5097540;28;20609;-66
2023/05/09 09:45:37;;;;;;;9.27;6.37;;;;;15.00;97283.00;;;;5091861;28;20787;-65
2023/05/09 09:48:26;;;;;;;6.40;5.73;;;;;14.90;97290.00;;;;5090006;28;20218;-64
2023/05/09 09:51:17;;;;;;;9.53;7.03;;;;;14.90;97286.00;;;;5094741;28;20249;-66
2023/05/09 09:54:08;;;;;;;8.10;6.10;;;;;15.30;97287.00;;;;5091581;28;20196;-66
2023/05/09 09:56:57;;;;;;;6.80;6.17;;;;;15.50;97272.00;;;;5085572;28;20280;-66
2023/05/09 09:59:58;;;;;;;6.67;5.83;;;;;16.00;97285.00;;;;5088665;28;20211;-66
2023/05/09 10:02:49;;;;;;;10.40;6.07;;;;;16.70;97288.00;;;;5098641;28;20209;-66
2023/05/09 10:05:39;;;;;;;7.53;6.73;;;;;17.00;97285.00;;;;5089159;28;20203;-66
2023/05/09 10:08:28;;;;;;;8.40;6.13;;;;;17.00;97286.00;;;;5089891;28;20203;-66
2023/05/09 10:11:17;;;;;;;7.57;6.23;;;;;17.00;97290.00;;;;5093200;28;20226;-66
2023/05/09 10:14:06;;;;;;;10.53;6.47;;;;;16.90;97290.00;;;;5074559;28;20214;-66
2023/05/09 10:16:57;;;;;;;9.50;6.50;;;;;17.10;97296.00;;;;5080648;28;20235;-66
2023/05/09 10:19:47;;;;;;;7.17;6.27;;;;;17.00;97283.00;;;;5082069;28;20203;-66
2023/05/09 10:22:38;;;;;;;6.80;6.17;;;;;17.00;97278.00;;;;5088348;28;20674;-66
2023/05/09 10:25:32;;;;;;;9.17;6.97;;;;;16.80;97276.00;;;;5087096;28;20248;-66
2023/05/09 10:28:24;;;;;;;9.63;8.50;;;;;16.50;97268.00;;;;5078420;28;20195;-66
2023/05/09 10:31:16;;;;;;;7.30;5.83;;;;;16.50;97274.00;;;;5086542;28;20256;-65
2023/05/09 10:34:10;;;;;;;7.40;6.57;;;;;16.00;97275.00;;;;5081661;28;20574;-66
2023/05/09 10:36:59;;;;;;;11.83;7.43;;;;;16.40;97281.00;;;;5080901;28;20312;-66
2023/05/09 10:39:51;;;;;;;10.57;6.97;;;;;16.40;97281.00;;;;5090744;28;20207;-67
2023/05/09 10:42:42;;;;;;;9.63;7.83;;;;;15.80;97272.00;;;;5088089;28;20207;-66
2023/05/09 10:45:31;;;;;;;9.73;6.97;;;;;15.20;97271.00;;;;5096770;28;20198;-68
2023/05/09 10:48:20;;;;;;;11.63;7.07;;;;;15.60;97264.00;;;;5105296;28;20289;-65
2023/05/09 10:51:10;;;;;;;7.03;6.37;;;;;15.80;97258.00;;;;5088248;28;20707;-66
2023/05/09 10:53:59;;;;;;;9.53;7.63;;;;;17.00;97246.00;;;;5098789;28;20236;-67
2023/05/09 10:56:48;;;;;;;7.43;6.63;;;;;16.10;97240.00;;;;5100637;28;20241;-67
2023/05/09 10:59:38;;;;;;;9.23;7.37;;;;;16.70;97239.00;;;;5107893;28;20264;-67
2023/05/09 11:02:31;;;;;;;7.70;6.30;;;;;16.20;97240.00;;;;5086004;28;20286;-66
2023/05/09 11:05:20;;;;;;;8.20;7.23;;;;;15.60;97236.00;;;;5101875;28;20198;-67
2023/05/09 11:08:21;;;;;;;8.10;6.87;;;;;16.20;97232.00;;;;5093240;28;20229;-66
2023/05/09 11:11:24;;;;;;;11.57;8.13;;;;;17.10;97223.00;;;;5076470;28;20214;-66
2023/05/09 11:14:30;;;;;;;12.37;8.30;;;;;17.40;97222.00;;;;5103378;28;20205;-66
2023/05/09 11:17:30;;;;;;;8.73;7.47;;;;;16.80;97226.00;;;;5107852;28;20275;-66
2023/05/09 11:20:19;;;;;;;10.10;7.57;;;;;16.30;97218.00;;;;5104613;28;20194;-66
2023/05/09 11:23:10;;;;;;;10.03;7.47;;;;;16.90;97222.00;;;;5089615;28;20207;-66
2023/05/09 11:26:07;;;;;;;8.97;7.20;;;;;16.70;97220.00;;;;5095021;28;20195;-65
2023/05/09 11:29:01;;;;;;;8.93;7.27;;;;;15.50;97206.00;;;;5085107;28;20210;-64
2023/05/09 11:32:05;;;;;;;8.80;7.83;;;;;15.50;97206.00;;;;5095888;28;20252;-67
2023/05/09 11:35:06;;;;;;;10.87;8.33;;;;;15.40;97201.00;;;;5094336;28;20727;-65
2023/05/09 11:38:00;;;;;;;12.43;8.67;;;;;16.00;97182.00;;;;5088320;28;20212;-64
2023/05/09 11:40:49;;;;;;;9.07;7.90;;;;;16.20;97189.00;;;;5084133;28;20195;-68
2023/05/09 11:43:43;;;;;;;9.90;7.73;;;;;16.10;97186.00;;;;5094072;28;20209;-70
2023/05/09 11:46:32;;;;;;;12.03;8.60;;;;;15.90;97180.00;;;;5108344;28;20222;-73
2023/05/09 11:49:21;;;;;;;9.37;7.77;;;;;16.30;97176.00;;;;5108764;28;20213;-69
2023/05/09 11:52:10;;;;;;;12.37;8.93;;;;;16.70;97179.00;;;;5109785;28;20622;-65
2023/05/09 11:55:00;;;;;;;11.13;8.20;;;;;16.90;97178.00;;;;5110404;28;20229;-66
2023/05/09 11:57:50;;;;;;;10.60;8.43;;;;;17.20;97181.00;;;;5110882;28;20222;-66
2023/05/09 12:00:46;;;;;;;11.00;7.03;;;;;17.60;97141.00;;;;5105054;28;20199;-68
2023/05/09 12:03:35;;;;;;;11.27;9.00;;;;;18.20;97165.00;;;;5107453;28;20210;-67
2023/05/09 12:06:24;;;;;;;12.13;7.93;;;;;19.30;97166.00;;;;5110810;28;20218;-67
2023/05/09 12:09:15;;;;;;;7.60;6.63;;;;;17.60;97167.00;;;;5110696;28;20238;-64
2023/05/09 12:12:10;;;;;;;9.33;6.97;;;;;17.00;97150.00;;;;5107860;28;20202;-68
2023/05/09 12:15:04;;;;;;;9.63;8.07;;;;;18.10;97081.00;;;;5099834;28;20210;-66
2023/05/09 12:18:04;;;;;;;10.37;7.90;;;;;18.00;97100.00;;;;5105477;28;20219;-64
2023/05/09 12:20:54;;;;;;;16.00;8.27;;;;;16.20;97133.00;;;;5092764;28;20200;-62
2023/05/09 12:23:43;;;;;;;8.83;7.57;;;;;15.90;97137.00;;;;5099240;28;20617;-66
2023/05/09 12:26:32;;;;;;;8.90;7.03;;;;;16.80;97140.00;;;;5110006;28;20218;-63
2023/05/09 12:29:22;;;;;;;8.90;7.97;;;;;16.60;97138.00;;;;5108405;28;20666;-63
2023/05/09 12:32:11;;;;;;;9.30;8.30;;;;;16.50;97117.00;;;;5100889;28;20242;-63
2023/05/09 12:35:02;;;;;;;8.30;7.50;;;;;16.40;97127.00;;;;5092570;28;20199;-66
2023/05/09 12:37:58;;;;;;;12.10;7.47;;;;;17.10;97138.00;;;;5094231;28;20223;-67
2023/05/09 12:40:48;;;;;;;8.93;7.30;;;;;16.80;97134.00;;;;5097040;28;20294;-66
2023/05/09 12:43:39;;;;;;;8.40;7.23;;;;;18.00;97132.00;;;;5101044;28;20717;-67
2023/05/09 12:46:28;;;;;;;9.20;7.10;;;;;18.40;97135.00;;;;5108871;28;20226;-66
2023/05/09 12:49:21;;;;;;;7.00;6.30;;;;;18.10;97146.00;;;;5109168;28;20209;-66
2023/05/09 12:52:19;;;;;;;8.73;7.10;;;;;17.10;97129.00;;;;5110316;28;20240;-70
2023/05/09 12:55:10;;;;;;;7.60;6.80;;;;;16.70;97103.00;;;;5109261;28;20207;-69
2023/05/09 12:58:01;;;;;;;7.80;6.40;;;;;17.60;97116.00;;;;5100104;28;20230;-69
2023/05/09 13:00:50;;;;;;;9.17;6.93;;;;;17.80;97100.00;;;;5110417;28;20202;-65
2023/05/09 13:03:38;;;;;;;11.93;6.43;;;;;18.80;97083.00;;;;5109209;28;20202;-68
2023/05/09 13:06:27;;;;;;;6.43;5.83;;;;;19.10;97112.00;;;;5109851;28;20678;-66
2023/05/09 13:09:18;;;;;;;8.60;7.30;;;;;17.80;97103.00;;;;5106905;28;20282;-71
2023/05/09 13:12:08;;;;;;;7.07;6.17;;;;;16.90;97097.00;;;;5100202;28;20203;-72
2023/05/09 13:14:57;;;;;;;7.57;5.90;;;;;17.20;97107.00;;;;5104580;28;20585;-66
2023/05/09 13:17:47;;;;;;;10.20;6.33;;;;;17.60;97109.00;;;;5108029;28;20229;-66
2023/05/09 13:20:36;;;;;;;7.80;6.33;;;;;16.90;97093.00;;;;5102433;28;20252;-67
2023/05/09 13:23:25;;;;;;;7.47;6.33;;;;;16.90;97088.00;;;;5105813;28;20284;-65
2023/05/09 13:26:15;;;;;;;12.43;6.97;;;;;16.70;97072.00;;;;5107784;28;20713;-65
2023/05/09 13:29:04;;;;;;;10.83;7.17;;;;;16.70;97086.00;;;;5109198;28;20287;-70
2023/05/09 13:31:53;;;;;;;11.40;6.50;;;;;17.00;97080.00;;;;5092736;28;20199;-69
2023/05/09 13:34:42;;;;;;;8.50;7.07;;;;;17.10;97098.00;;;;5094213;28;20207;-65
2023/05/09 13:37:31;;;;;;;8.43;7.30;;;;;16.70;97081.00;;;;5099172;28;20323;-68
2023/05/09 13:40:20;;;;;;;7.70;6.80;;;;;17.20;97091.00;;;;5103056;28;20226;-65
2023/05/09 13:43:11;;;;;;;11.63;6.13;;;;;17.90;97094.00;;;;5102465;28;20209;-65
2023/05/09 13:46:00;;;;;;;10.77;7.17;;;;;18.00;97098.00;;;;5088164;28;20252;-64
2023/05/09 13:48:49;;;;;;;7.33;6.10;;;;;17.50;97093.00;;;;5088869;28;20199;-66
2023/05/09 13:51:38;;;;;;;8.27;6.07;;;;;16.80;97088.00;;;;5080428;28;20257;-66
2023/05/09 13:54:33;;;;;;;7.53;6.47;;;;;17.20;97093.00;;;;5100267;28;20691;-66
2023/05/09 13:57:22;;;;;;;10.40;7.07;;;;;17.20;97084.00;;;;5087401;28;20231;-67
2023/05/09 14:00:14;;;;;;;8.80;6.40;;;;;17.20;97080.00;;;;5096715;28;20203;-65
2023/05/09 14:03:03;;;;;;;7.77;6.70;;;;;17.30;97067.00;;;;5088332;28;20203;-65